createdAt,value
2019-01-29T00:02:29.414Z,9.07
2019-01-29T00:04:59.917Z,9.30
2019-01-29T00:07:30.619Z,8.00
2019-01-29T00:10:01.823Z,7.90
2019-01-29T00:12:32.285Z,8.07
2019-01-29T00:15:03.018Z,5.63
2019-01-29T00:17:33.556Z,7.07
2019-01-29T00:20:06.836Z,7.80
2019-01-29T00:22:37.330Z,6.63
2019-01-29T00:25:10.900Z,8.10
2019-01-29T00:27:41.367Z,4.00
2019-01-29T00:30:14.930Z,6.00
2019-01-29T00:32:45.810Z,4.57
2019-01-29T00:35:16.349Z,6.33
2019-01-29T00:37:46.835Z,6.80
2019-01-29T00:40:17.807Z,8.47
2019-01-29T00:42:48.543Z,6.33
2019-01-29T00:45:20.067Z,5.43
2019-01-29T00:47:50.601Z,6.20
2019-01-29T00:50:21.392Z,4.83
2019-01-29T00:52:51.866Z,8.30
2019-01-29T00:55:22.368Z,9.13
2019-01-29T00:57:52.931Z,8.00
2019-01-29T01:00:25.064Z,4.23
2019-01-29T01:02:55.521Z,4.63
2019-01-29T01:05:26.027Z,10.47
2019-01-29T01:07:56.461Z,6.73
2019-01-29T01:10:27.723Z,9.30
2019-01-29T01:12:58.165Z,6.20
2019-01-29T01:15:29.109Z,6.13
2019-01-29T01:17:59.551Z,8.53
2019-01-29T01:20:30.377Z,8.13
2019-01-29T01:23:00.833Z,7.03
2019-01-29T01:25:31.388Z,6.07
2019-01-29T01:28:01.875Z,4.27
2019-01-29T01:30:32.565Z,5.57
2019-01-29T01:33:03.089Z,4.67
2019-01-29T01:35:33.546Z,10.53
2019-01-29T01:38:04.352Z,10.03
2019-01-29T01:40:34.813Z,9.63
2019-01-29T01:43:05.301Z,6.87
2019-01-29T01:45:35.820Z,6.70
2019-01-29T01:48:06.247Z,6.07
2019-01-29T01:50:36.806Z,11.90
2019-01-29T01:53:07.418Z,5.33
2019-01-29T01:55:37.896Z,5.00
2019-01-29T01:58:08.742Z,6.00
2019-01-29T02:00:39.294Z,8.10
2019-01-29T02:03:09.865Z,7.80
2019-01-29T02:05:40.333Z,5.10
2019-01-29T02:08:10.771Z,6.43
2019-01-29T02:10:42.123Z,4.40
2019-01-29T02:13:12.750Z,8.33
2019-01-29T02:15:43.202Z,7.73
2019-01-29T02:18:13.686Z,10.47
2019-01-29T02:20:44.131Z,7.43
2019-01-29T02:23:14.553Z,6.40
2019-01-29T02:25:45.068Z,7.10
2019-01-29T02:28:15.521Z,8.33
2019-01-29T02:30:46.060Z,8.57
2019-01-29T02:33:16.499Z,5.07
2019-01-29T02:35:46.997Z,4.30
2019-01-29T02:38:17.444Z,6.90
2019-01-29T02:40:47.887Z,6.97
2019-01-29T02:43:18.357Z,9.53
2019-01-29T02:45:48.808Z,6.20
2019-01-29T02:48:19.314Z,10.60
2019-01-29T02:50:49.786Z,10.33
2019-01-29T02:53:20.282Z,5.20
2019-01-29T02:55:50.815Z,6.43
2019-01-29T02:58:21.316Z,5.90
2019-01-29T03:00:51.700Z,5.07
2019-01-29T03:03:22.174Z,8.93
2019-01-29T03:05:52.906Z,4.47
2019-01-29T03:08:23.379Z,9.33
2019-01-29T03:10:54.960Z,8.40
2019-01-29T03:13:25.706Z,3.70
2019-01-29T03:15:56.221Z,5.40
2019-01-29T03:18:26.718Z,9.17
2019-01-29T03:20:57.284Z,6.70
2019-01-29T03:23:28.006Z,5.63
2019-01-29T03:25:58.501Z,6.97
2019-01-29T03:28:28.999Z,8.23
2019-01-29T03:30:59.498Z,4.47
2019-01-29T03:33:29.941Z,3.17
2019-01-29T03:36:00.381Z,4.67
2019-01-29T03:38:30.832Z,5.90
2019-01-29T03:41:01.293Z,5.20
2019-01-29T03:43:31.787Z,5.60
2019-01-29T03:46:02.200Z,5.13
2019-01-29T03:48:32.696Z,6.63
2019-01-29T03:51:03.163Z,8.13
2019-01-29T03:53:38.244Z,5.47
2019-01-29T03:56:05.984Z,6.97
2019-01-29T03:58:36.429Z,4.90
2019-01-29T04:01:07.127Z,4.60
2019-01-29T04:03:37.570Z,9.00
2019-01-29T04:06:08.086Z,4.10
2019-01-29T04:08:38.631Z,10.40
2019-01-29T04:11:12.655Z,6.73
2019-01-29T04:13:43.100Z,7.60
2019-01-29T04:16:13.578Z,8.60
2019-01-29T04:18:44.022Z,6.27
2019-01-29T04:21:14.549Z,5.70
2019-01-29T04:23:47.585Z,6.77
2019-01-29T04:26:17.442Z,4.93
2019-01-29T04:28:47.932Z,10.27
2019-01-29T04:31:18.410Z,12.37
2019-01-29T04:33:48.852Z,6.03
2019-01-29T04:36:19.288Z,12.03
2019-01-29T04:38:53.292Z,7.10
2019-01-29T04:41:52.440Z,7.77
2019-01-29T04:44:22.893Z,7.63
2019-01-29T04:46:57.090Z,7.70
2019-01-29T04:49:27.539Z,10.80
2019-01-29T04:51:58.157Z,10.90
2019-01-29T04:54:28.645Z,14.67
2019-01-29T04:56:59.723Z,13.67
2019-01-29T04:59:30.328Z,7.97
2019-01-29T05:02:00.857Z,11.77
2019-01-29T05:04:31.353Z,8.87
2019-01-29T05:07:01.804Z,7.73
2019-01-29T05:09:32.275Z,9.87
2019-01-29T05:12:03.509Z,6.60
2019-01-29T05:14:33.951Z,9.53
2019-01-29T05:17:04.508Z,5.10
2019-01-29T05:19:34.955Z,9.10
2019-01-29T05:22:05.464Z,8.53
2019-01-29T05:24:35.916Z,13.10
2019-01-29T05:27:06.505Z,5.87
2019-01-29T05:29:37.086Z,8.83
2019-01-29T05:32:12.087Z,10.17
2019-01-29T05:34:42.624Z,10.37
2019-01-29T05:37:13.043Z,6.27
2019-01-29T05:39:43.773Z,4.03
2019-01-29T05:42:15.535Z,9.63
2019-01-29T05:44:45.934Z,8.73
2019-01-29T05:47:16.384Z,10.17
2019-01-29T05:49:46.835Z,3.63
2019-01-29T05:52:17.343Z,7.43
2019-01-29T05:54:47.774Z,7.17
2019-01-29T05:57:18.227Z,7.60
2019-01-29T05:59:48.674Z,10.33
2019-01-29T06:02:19.123Z,14.07
2019-01-29T06:04:49.588Z,8.40
2019-01-29T06:07:20.046Z,5.13
2019-01-29T06:09:50.562Z,10.33
2019-01-29T06:12:21.734Z,7.40
2019-01-29T06:14:52.432Z,4.53
2019-01-29T06:17:27.516Z,6.90
2019-01-29T06:19:55.117Z,8.33
2019-01-29T06:22:25.561Z,6.57
2019-01-29T06:24:55.999Z,6.97
2019-01-29T06:27:26.557Z,10.67
2019-01-29T06:29:57.271Z,11.00
2019-01-29T06:32:28.113Z,7.57
2019-01-29T06:34:58.934Z,4.97
2019-01-29T06:37:29.406Z,9.53
2019-01-29T06:39:59.875Z,7.67
2019-01-29T06:42:30.309Z,3.93
2019-01-29T06:45:00.751Z,6.00
2019-01-29T06:47:31.234Z,11.97
2019-01-29T06:50:01.732Z,5.30
2019-01-29T06:52:32.434Z,8.53
2019-01-29T06:55:02.937Z,6.73
2019-01-29T06:57:33.391Z,10.77
2019-01-29T07:00:05.563Z,12.57
2019-01-29T07:02:36.012Z,7.80
2019-01-29T07:05:08.496Z,11.27
2019-01-29T07:07:38.932Z,6.33
2019-01-29T07:10:13.678Z,6.97
2019-01-29T07:12:44.864Z,7.60
2019-01-29T07:15:39.435Z,7.70
2019-01-29T07:18:27.894Z,9.83
2019-01-29T07:20:58.449Z,15.03
2019-01-29T07:23:28.884Z,11.00
2019-01-29T07:25:59.335Z,6.80
2019-01-29T07:28:29.783Z,14.90
2019-01-29T07:31:00.353Z,9.83
2019-01-29T07:33:30.826Z,7.00
2019-01-29T07:36:01.286Z,15.60
2019-01-29T07:38:31.797Z,9.23
2019-01-29T07:41:02.221Z,8.07
2019-01-29T07:43:32.641Z,8.37
2019-01-29T07:46:03.153Z,7.50
2019-01-29T07:48:33.590Z,10.10
2019-01-29T07:51:04.178Z,5.47
2019-01-29T07:53:34.669Z,10.27
2019-01-29T07:56:05.175Z,9.37
2019-01-29T07:58:35.615Z,12.33
2019-01-29T08:01:06.131Z,6.33
2019-01-29T08:03:38.328Z,5.67
2019-01-29T08:06:09.007Z,10.43
2019-01-29T08:08:39.431Z,4.60
2019-01-29T08:11:09.870Z,6.20
2019-01-29T08:13:41.326Z,7.00
2019-01-29T08:16:12.629Z,11.50
2019-01-29T08:18:43.166Z,7.70
2019-01-29T08:21:13.949Z,5.13
2019-01-29T08:23:44.365Z,7.60
2019-01-29T08:26:14.887Z,5.37
2019-01-29T08:28:45.389Z,6.03
2019-01-29T08:31:16.357Z,4.63
2019-01-29T08:33:46.820Z,4.90
2019-01-29T08:36:17.294Z,9.43
2019-01-29T08:38:47.731Z,4.67
2019-01-29T08:41:18.158Z,5.53
2019-01-29T08:43:48.617Z,9.80
2019-01-29T08:46:19.034Z,7.20
2019-01-29T08:48:49.555Z,4.33
2019-01-29T08:51:20.314Z,4.33
2019-01-29T08:53:50.770Z,6.30
2019-01-29T08:56:21.260Z,8.83
2019-01-29T08:58:51.689Z,4.17
2019-01-29T09:01:22.121Z,4.83
2019-01-29T09:03:52.563Z,3.70
2019-01-29T09:06:23.102Z,6.20
2019-01-29T09:08:53.567Z,6.73
2019-01-29T09:11:24.071Z,7.17
2019-01-29T09:13:55.266Z,5.97
2019-01-29T09:16:25.681Z,5.90
2019-01-29T09:18:56.100Z,4.57
2019-01-29T09:21:26.541Z,2.77
2019-01-29T09:23:57.420Z,4.13
2019-01-29T09:26:27.835Z,4.50
2019-01-29T09:28:58.278Z,7.13
2019-01-29T09:31:28.707Z,3.30
2019-01-29T09:33:59.155Z,5.47
2019-01-29T09:36:29.589Z,4.70
2019-01-29T09:39:00.048Z,6.20
2019-01-29T09:41:30.482Z,4.37
2019-01-29T09:44:00.907Z,5.33
2019-01-29T09:46:31.365Z,3.10
2019-01-29T09:49:01.790Z,2.80
2019-01-29T09:51:32.243Z,4.23
2019-01-29T09:54:02.659Z,2.57
2019-01-29T09:56:33.112Z,1.97
2019-01-29T09:59:03.535Z,4.70
2019-01-29T10:01:33.961Z,2.40
2019-01-29T10:04:04.528Z,2.63
2019-01-29T10:06:35.059Z,2.17
2019-01-29T10:09:08.282Z,2.07
2019-01-29T10:11:38.750Z,4.03
2019-01-29T10:14:10.145Z,5.33
2019-01-29T10:16:40.605Z,5.00
2019-01-29T10:19:11.021Z,3.83
2019-01-29T11:35:40.754Z,5.03
2019-01-29T11:38:11.748Z,4.27
2019-01-29T11:40:42.285Z,6.43
2019-01-29T12:58:54.617Z,4.83
2019-01-29T14:12:56.746Z,4.77
2019-01-29T14:26:02.362Z,3.30
2019-01-29T15:39:21.124Z,9.17
2019-01-29T15:41:51.669Z,8.63
2019-01-29T15:44:22.205Z,8.80
2019-01-29T15:46:52.732Z,9.70
2019-01-29T15:49:23.524Z,9.90
2019-01-29T15:51:53.946Z,9.33
2019-01-29T15:54:24.390Z,9.27
2019-01-29T15:56:54.837Z,14.40
2019-01-29T15:59:25.684Z,11.43
2019-01-29T16:01:56.568Z,13.70
2019-01-29T16:04:27.745Z,11.37
2019-01-29T16:06:58.478Z,35.63
2019-01-29T16:09:28.957Z,25.60
2019-01-29T16:11:59.395Z,17.50
2019-01-29T16:14:30.154Z,14.43
2019-01-29T16:17:00.879Z,16.77
2019-01-29T16:19:31.491Z,10.23
2019-01-29T16:22:01.965Z,12.97
2019-01-29T16:24:32.421Z,14.53
2019-01-29T16:27:06.947Z,12.00
2019-01-29T16:29:35.287Z,16.07
2019-01-29T16:32:06.283Z,15.17
2019-01-29T16:34:36.852Z,13.47
2019-01-29T16:37:07.479Z,13.37
2019-01-29T16:39:37.960Z,15.73
2019-01-29T16:42:08.608Z,20.10
2019-01-29T16:44:39.433Z,21.80
2019-01-29T16:47:09.989Z,23.47
2019-01-29T16:49:42.499Z,18.03
2019-01-29T16:52:12.957Z,16.93
2019-01-29T16:54:43.444Z,17.27
2019-01-29T16:57:13.970Z,23.63
2019-01-29T16:59:45.039Z,32.57
2019-01-29T17:19:05.852Z,22.80
2019-01-29T17:21:38.730Z,19.67
2019-01-29T17:24:18.625Z,27.50
2019-01-29T17:33:33.241Z,16.23
2019-01-29T17:36:05.783Z,16.57
2019-01-29T17:38:44.421Z,14.37
2019-01-29T17:41:09.914Z,13.57
2019-01-29T17:43:40.984Z,13.97
2019-01-29T17:46:11.708Z,16.17
2019-01-29T17:48:42.212Z,18.37
2019-01-29T17:51:12.769Z,24.30
2019-01-29T17:53:43.655Z,15.53
2019-01-29T17:56:14.627Z,18.43
2019-01-29T17:58:58.631Z,19.73
2019-01-29T18:01:32.446Z,15.77
2019-01-29T18:04:03.201Z,19.57
2019-01-29T18:06:34.383Z,19.43
2019-01-29T18:09:09.894Z,24.07
2019-01-29T18:11:42.633Z,25.40
2019-01-29T18:14:13.908Z,19.00
2019-01-29T18:16:44.849Z,21.93
2019-01-29T18:19:15.476Z,12.90
2019-01-29T18:21:56.224Z,22.03
2019-01-29T18:24:18.266Z,19.30
2019-01-29T18:26:48.871Z,16.73
2019-01-29T18:29:19.652Z,21.97
2019-01-29T18:31:50.141Z,17.40
2019-01-29T18:34:20.686Z,14.13
2019-01-29T18:36:51.345Z,17.10
2019-01-29T18:39:22.135Z,22.37
2019-01-29T18:41:52.806Z,14.33
2019-01-29T18:44:24.037Z,17.00
2019-01-29T18:46:55.017Z,19.87
2019-01-29T18:49:25.794Z,19.57
2019-01-29T18:51:57.017Z,25.70
2019-01-29T18:54:27.975Z,19.33
2019-01-29T18:56:58.957Z,19.53
2019-01-29T18:59:29.710Z,23.37
2019-01-29T19:02:00.960Z,23.73
2019-01-29T19:04:31.746Z,21.40
2019-01-29T19:07:02.599Z,23.73
2019-01-29T19:09:33.332Z,20.83
2019-01-29T19:12:04.286Z,21.00
2019-01-29T19:14:35.307Z,23.60
2019-01-29T19:17:07.857Z,32.40
2019-01-29T19:19:39.059Z,20.27
2019-01-29T19:22:09.858Z,26.80
2019-01-29T19:24:41.096Z,19.93
2019-01-29T19:27:11.931Z,19.13
2019-01-29T19:29:42.971Z,20.53
2019-01-29T19:32:13.696Z,20.03
2019-01-29T19:34:46.531Z,27.10
2019-01-29T19:37:17.734Z,33.40
2019-01-29T19:39:48.418Z,22.80
2019-01-29T19:42:27.527Z,25.80
2019-01-29T19:44:55.027Z,19.73
2019-01-29T19:47:25.834Z,22.23
2019-01-29T19:49:57.031Z,16.13
2019-01-29T19:52:28.746Z,17.80
2019-01-29T19:55:00.817Z,21.70
2019-01-29T19:57:31.764Z,22.70
2019-01-29T20:00:02.748Z,28.67
2019-01-29T20:02:33.854Z,19.17
2019-01-29T20:05:10.881Z,17.97
2019-01-29T20:07:41.562Z,18.47
2019-01-29T20:10:17.050Z,34.70
2019-01-29T20:12:48.226Z,12.97
2019-01-29T20:15:23.487Z,23.47
2019-01-29T20:17:57.506Z,16.07
2019-01-29T20:20:37.942Z,24.17
2019-01-29T20:23:08.809Z,9.73
2019-01-29T22:33:09.797Z,10.07
2019-01-29T22:35:41.194Z,16.67
2019-01-29T22:38:12.232Z,17.90
2019-01-29T22:40:49.195Z,14.27
2019-01-29T22:43:21.556Z,15.87
2019-01-29T22:48:46.512Z,18.40
2019-01-29T22:54:11.346Z,13.27
2019-01-29T22:59:33.759Z,12.20
2019-01-29T23:10:36.091Z,11.80
2019-01-29T23:13:07.997Z,13.00
2019-01-29T23:15:39.872Z,16.13
2019-01-29T23:18:13.288Z,11.07
2019-01-29T23:20:45.273Z,9.63
2019-01-29T23:23:22.505Z,10.33
2019-01-29T23:25:54.396Z,10.53
2019-01-29T23:28:25.620Z,14.23
2019-01-29T23:30:58.362Z,17.23
2019-01-29T23:46:31.937Z,18.70
2019-01-29T23:49:11.328Z,15.33
2019-01-29T23:51:43.095Z,9.60
2019-01-29T23:54:30.392Z,12.73
2019-01-29T23:57:01.501Z,10.37
2019-01-29T23:59:33.136Z,11.33
